Startpagina
METAR-TAF:

METAR-TAF

Vliegvelden :

Hagåtña, Guam, Verenigde Staten

breedte: 13-29N, lengte: 144-48E, hoogte: 91 m

Actueel weer

Dit bericht is 55 minuten geleden gemaakt, om 18:54 UTC
Weinig wind
Temperatuur 27°C
Vochtigheid 100%
Druk 1011 hPa
Zicht: 16.1 km
Weinig wolken op 1500 ft
Verspreide wolken op 2100 ft
Gebroken wolken op 3600 ft

METAR: PGUM 151854Z 00000KT 10SM FEW015 SCT021 BKN036 27/27 A2984 RMK AO2 SLP097 T02670267

Tijdstip: 05:49 (19:49 UTC)

Verwachting

Dit bericht is 2 uur en het 17 minuten geleden gemaakt, om 17:32 UTC
Verwachting geldig van 15 om 18 UTC tot 16 om 24 UTC
Wind 8 kt uit het zuidoosten
Zicht: 10 km
Verspreide wolken op 1800 ft
Gebroken wolken op 15000 ft
buien in de omgeving

TAF: PGUM 151732Z 1518/1624 13008KT P6SM VCSH SCT018 BKN150

Waarnemingen en weersverwachtingen van meer dan 4000 vliegvelden (METAR en TAF).

De beschikbare stations zijn de gele en rode punten op de kaart.

Ga met uw muis naar het station om de naam te zien.

Klik dan om waarnemingen en weersverwachtingen te zien.

kaart wijzigen: klik op de groene knoppen met een zwart kruis om in te zoomen, op de groene knop met een streepje om uit te zoomen of op de groene pijlen voor aangrenzende kaarten.


METAR-TAF: